createdAt,value
2023-02-19T00:01:53.011Z,0.75
2023-02-19T00:04:23.806Z,0.77
2023-02-19T00:06:52.084Z,0.60
2023-02-19T00:09:20.719Z,0.50
2023-02-19T00:11:49.177Z,0.45
2023-02-19T00:16:46.978Z,0.70
2023-02-19T00:19:18.038Z,1.92
2023-02-19T00:21:47.812Z,0.68
2023-02-19T00:24:16.520Z,0.50
2023-02-19T00:26:45.639Z,0.60
2023-02-19T00:29:15.211Z,0.40
2023-02-19T00:31:44.462Z,0.50
2023-02-19T00:34:13.742Z,0.90
2023-02-19T00:36:43.093Z,0.70
2023-02-19T00:39:15.909Z,0.73
2023-02-19T00:41:44.459Z,0.90
2023-02-19T00:44:14.109Z,0.70
2023-02-19T00:46:44.631Z,0.90
2023-02-19T00:49:16.850Z,0.98
2023-02-19T00:51:45.009Z,0.50
2023-02-19T00:54:14.893Z,0.35
2023-02-19T00:56:43.258Z,0.55
2023-02-19T01:01:39.338Z,0.30
2023-02-19T01:04:07.728Z,0.57
2023-02-19T01:06:35.973Z,1.38
2023-02-19T01:09:05.808Z,0.25
2023-02-19T01:11:35.299Z,0.43
2023-02-19T01:14:05.106Z,0.35
2023-02-19T01:16:33.438Z,0.65
2023-02-19T01:21:31.171Z,0.30
2023-02-19T01:23:59.509Z,1.55
2023-02-19T01:26:31.063Z,0.30
2023-02-19T01:29:01.361Z,0.20
2023-02-19T01:31:30.075Z,0.57
2023-02-19T01:34:00.728Z,0.77
2023-02-19T01:36:29.532Z,0.50
2023-02-19T01:38:57.643Z,0.70
2023-02-19T01:41:26.810Z,0.38
2023-02-19T01:44:03.495Z,0.57
2023-02-19T01:46:32.706Z,0.60
2023-02-19T01:49:05.847Z,0.55
2023-02-19T01:51:36.268Z,0.22
2023-02-19T01:54:07.672Z,0.90
2023-02-19T01:56:38.446Z,0.57
2023-02-19T01:59:08.844Z,0.63
2023-02-19T02:01:38.623Z,1.05
2023-02-19T02:04:08.508Z,0.47
2023-02-19T02:06:43.674Z,0.40
2023-02-19T02:09:31.870Z,0.77
2023-02-19T02:12:00.197Z,0.73
2023-02-19T02:14:34.649Z,0.80
2023-02-19T02:17:13.010Z,0.52
2023-02-19T02:20:09.149Z,0.68
2023-02-19T02:22:42.839Z,0.30
2023-02-19T02:25:41.195Z,1.00
2023-02-19T02:28:23.425Z,0.65
2023-02-19T02:30:57.546Z,0.68
2023-02-19T02:33:32.735Z,1.25
2023-02-19T02:36:07.276Z,1.55
2023-02-19T02:38:40.034Z,0.57
2023-02-19T02:41:08.694Z,0.55
2023-02-19T02:43:37.246Z,0.70
2023-02-19T02:46:06.922Z,1.08
2023-02-19T02:48:41.225Z,1.23
2023-02-19T02:51:19.612Z,0.68
2023-02-19T02:54:33.357Z,0.50
2023-02-19T02:57:05.820Z,0.43
2023-02-19T02:59:40.307Z,0.50
2023-02-19T03:02:14.958Z,0.73
2023-02-19T03:05:09.354Z,0.63
2023-02-19T03:07:43.918Z,0.43
2023-02-19T03:10:17.177Z,0.45
2023-02-19T03:13:04.618Z,1.02
2023-02-19T03:15:57.147Z,0.82
2023-02-19T03:18:47.081Z,0.65
2023-02-19T03:21:18.466Z,0.98
2023-02-19T03:24:05.535Z,0.55
2023-02-19T03:26:34.784Z,1.05
2023-02-19T03:29:22.079Z,0.20
2023-02-19T03:31:56.363Z,0.82
2023-02-19T03:34:30.095Z,0.50
2023-02-19T03:37:03.111Z,0.73
2023-02-19T03:39:32.003Z,1.05
2023-02-19T03:42:10.119Z,0.63
2023-02-19T03:44:45.866Z,0.68
2023-02-19T03:47:21.154Z,0.82
2023-02-19T03:49:57.607Z,0.90
2023-02-19T03:52:35.199Z,1.05
2023-02-19T03:55:08.187Z,0.55
2023-02-19T03:57:46.648Z,0.52
2023-02-19T04:00:20.025Z,0.65
2023-02-19T04:02:56.665Z,0.50
2023-02-19T04:05:29.205Z,1.02
2023-02-19T04:08:01.772Z,0.63
2023-02-19T04:10:35.395Z,1.05
2023-02-19T04:13:09.178Z,0.65
2023-02-19T04:15:41.641Z,1.10
2023-02-19T04:18:14.851Z,0.25
2023-02-19T04:20:47.705Z,0.65
2023-02-19T04:23:19.714Z,0.70
2023-02-19T04:25:52.746Z,0.45
2023-02-19T04:28:20.952Z,0.43
2023-02-19T04:30:49.061Z,0.82
2023-02-19T04:33:17.249Z,0.75
2023-02-19T04:35:46.522Z,0.68
2023-02-19T04:38:14.844Z,0.57
2023-02-19T04:43:10.730Z,0.28
2023-02-19T04:45:38.837Z,0.90
2023-02-19T04:48:06.873Z,1.50
2023-02-19T04:50:34.925Z,0.60
2023-02-19T04:53:04.473Z,0.93
2023-02-19T04:55:32.470Z,0.47
2023-02-19T04:58:01.622Z,0.32
2023-02-19T05:00:29.490Z,1.25
2023-02-19T05:02:57.606Z,0.70
2023-02-19T05:05:25.786Z,1.08
2023-02-19T05:10:23.052Z,1.00
2023-02-19T05:12:50.977Z,0.45
2023-02-19T05:15:19.151Z,0.63
2023-02-19T05:17:47.237Z,0.40
2023-02-19T05:20:15.311Z,0.50
2023-02-19T05:22:43.411Z,0.73
2023-02-19T05:25:11.363Z,0.50
2023-02-19T05:27:40.675Z,0.98
2023-02-19T05:30:09.700Z,0.73
2023-02-19T05:32:37.869Z,0.60
2023-02-19T05:35:06.458Z,0.35
2023-02-19T05:37:34.508Z,0.77
2023-02-19T05:40:02.537Z,0.77
2023-02-19T05:42:30.495Z,0.80
2023-02-19T05:44:59.952Z,0.22
2023-02-19T05:47:27.914Z,0.47
2023-02-19T05:49:55.820Z,0.38
2023-02-19T05:52:23.975Z,0.95
2023-02-19T05:54:51.923Z,0.80
2023-02-19T05:57:20.490Z,0.82
2023-02-19T05:59:48.604Z,0.70
2023-02-19T06:04:46.023Z,0.68
2023-02-19T06:07:13.938Z,0.65
2023-02-19T06:09:42.105Z,0.52
2023-02-19T06:12:10.271Z,0.20
2023-02-19T06:14:38.120Z,0.30
2023-02-19T06:17:06.191Z,0.30
2023-02-19T06:19:35.599Z,0.32
2023-02-19T06:22:03.687Z,0.50
2023-02-19T06:24:31.884Z,0.25
2023-02-19T06:27:00.007Z,0.85
2023-02-19T06:29:28.152Z,0.35
2023-02-19T06:31:56.315Z,1.05
2023-02-19T06:34:24.675Z,0.75
2023-02-19T06:36:54.342Z,0.70
2023-02-19T06:39:22.269Z,0.57
2023-02-19T06:41:50.498Z,0.55
2023-02-19T06:44:18.622Z,0.73
2023-02-19T06:46:46.599Z,0.28
2023-02-19T06:49:15.404Z,0.60
2023-02-19T06:51:43.562Z,1.80
2023-02-19T06:54:12.994Z,1.17
2023-02-19T06:56:43.078Z,0.52
2023-02-19T06:59:13.865Z,0.77
2023-02-19T07:01:41.979Z,1.05
2023-02-19T07:04:10.342Z,0.55
2023-02-19T07:09:08.847Z,1.17
2023-02-19T07:11:40.578Z,0.75
2023-02-19T07:14:14.529Z,0.43
2023-02-19T07:16:42.910Z,1.13
2023-02-19T07:19:11.810Z,0.55
2023-02-19T07:21:40.145Z,1.35
2023-02-19T07:24:08.328Z,0.60
2023-02-19T07:26:36.793Z,0.47
2023-02-19T07:31:34.147Z,0.43
2023-02-19T07:34:02.066Z,0.60
2023-02-19T07:36:30.399Z,1.02
2023-02-19T07:41:28.567Z,1.48
2023-02-19T07:43:59.464Z,0.65
2023-02-19T07:46:29.994Z,0.28
2023-02-19T07:48:57.909Z,0.85
2023-02-19T07:51:26.126Z,0.57
2023-02-19T07:53:54.151Z,1.13
2023-02-19T07:56:22.575Z,0.43
2023-02-19T07:58:50.652Z,0.63
2023-02-19T08:01:40.453Z,0.32
2023-02-19T08:04:09.384Z,0.52
2023-02-19T08:06:37.497Z,0.82
2023-02-19T08:09:06.649Z,0.75
2023-02-19T08:11:51.846Z,1.15
2023-02-19T08:14:19.907Z,1.58
2023-02-19T08:16:52.433Z,0.47
2023-02-19T08:19:22.585Z,0.30
2023-02-19T08:21:51.113Z,1.92
2023-02-19T08:24:19.181Z,0.43
2023-02-19T08:26:47.222Z,0.70
2023-02-19T08:29:15.411Z,0.85
2023-02-19T08:31:43.687Z,0.80
2023-02-19T08:34:11.971Z,0.40
2023-02-19T08:36:41.248Z,0.43
2023-02-19T08:39:09.306Z,0.47
2023-02-19T08:41:37.312Z,0.85
2023-02-19T08:44:05.423Z,0.63
2023-02-19T08:46:34.503Z,0.47
2023-02-19T08:49:02.815Z,0.43
2023-02-19T08:51:30.970Z,1.17
2023-02-19T08:54:03.025Z,0.60
2023-02-19T08:56:31.295Z,0.43
2023-02-19T08:58:59.446Z,0.38
2023-02-19T09:01:27.524Z,0.30
2023-02-19T09:03:55.556Z,0.60
2023-02-19T09:06:23.612Z,0.38
2023-02-19T09:08:51.730Z,0.32
2023-02-19T09:11:21.085Z,0.65
2023-02-19T09:13:49.279Z,0.22
2023-02-19T09:18:45.873Z,0.90
2023-02-19T09:21:14.244Z,0.80
2023-02-19T09:23:42.432Z,0.47
2023-02-19T09:26:11.572Z,0.75
2023-02-19T09:28:43.155Z,0.03
2023-02-19T09:31:13.865Z,0.52
2023-02-19T09:33:45.919Z,0.70
2023-02-19T09:36:14.976Z,0.90
2023-02-19T09:38:43.472Z,0.47
2023-02-19T09:41:19.487Z,0.17
2023-02-19T09:43:49.017Z,0.50
2023-02-19T09:46:26.024Z,0.75
2023-02-19T09:48:57.047Z,0.40
2023-02-19T09:51:29.021Z,0.52
2023-02-19T09:53:59.060Z,0.50
2023-02-19T09:56:28.182Z,0.20
2023-02-19T09:59:00.556Z,0.32
2023-02-19T10:01:34.595Z,0.40
2023-02-19T10:04:02.730Z,0.63
2023-02-19T10:06:30.852Z,0.75
2023-02-19T10:09:14.462Z,0.22
2023-02-19T10:11:43.124Z,0.98
2023-02-19T10:14:17.983Z,0.40
2023-02-19T10:16:49.184Z,0.93
2023-02-19T10:19:17.766Z,0.28
2023-02-19T10:21:46.761Z,0.70
2023-02-19T10:24:22.025Z,0.43
2023-02-19T10:26:51.403Z,0.30
2023-02-19T10:29:21.973Z,0.90
2023-02-19T10:31:50.249Z,1.00
2023-02-19T10:34:22.216Z,0.50
2023-02-19T10:36:52.319Z,0.82
2023-02-19T10:39:43.482Z,0.40
2023-02-19T10:42:20.566Z,0.57
2023-02-19T10:44:54.192Z,0.28
2023-02-19T10:47:24.846Z,0.52
2023-02-19T10:49:54.174Z,0.60
2023-02-19T10:52:26.920Z,0.43
2023-02-19T10:54:58.100Z,0.55
2023-02-19T10:57:33.151Z,0.32
2023-02-19T11:00:04.617Z,0.40
2023-02-19T11:02:32.773Z,0.10
2023-02-19T11:05:08.498Z,0.70
2023-02-19T11:07:37.623Z,0.40
2023-02-19T11:10:08.790Z,0.73
2023-02-19T11:12:36.974Z,0.30
2023-02-19T11:15:22.172Z,0.45
2023-02-19T11:17:56.627Z,0.20
2023-02-19T11:20:26.223Z,0.50
2023-02-19T11:23:01.707Z,0.50
2023-02-19T11:25:31.039Z,0.52
2023-02-19T11:28:06.987Z,0.43
2023-02-19T11:30:39.757Z,1.02
2023-02-19T11:33:28.317Z,0.52
2023-02-19T11:36:19.555Z,0.73
2023-02-19T11:38:47.908Z,0.60
2023-02-19T11:44:07.748Z,0.35
2023-02-19T11:46:47.750Z,0.50
2023-02-19T11:49:28.127Z,0.52
2023-02-19T11:52:20.710Z,0.25
2023-02-19T11:54:54.581Z,0.52
2023-02-19T11:57:36.050Z,0.43
2023-02-19T12:00:19.737Z,0.40
2023-02-19T12:03:03.187Z,0.45
2023-02-19T12:05:43.347Z,0.80
2023-02-19T12:08:42.433Z,0.43
2023-02-19T12:11:22.385Z,0.32
2023-02-19T12:14:05.059Z,0.70
2023-02-19T12:16:41.275Z,0.73
2023-02-19T12:19:34.018Z,0.30
2023-02-19T12:22:18.862Z,0.40
2023-02-19T12:25:01.247Z,0.22
2023-02-19T12:27:43.713Z,0.57
2023-02-19T12:30:31.830Z,0.30
2023-02-19T12:33:22.262Z,0.50
2023-02-19T12:36:04.094Z,0.80
2023-02-19T12:38:36.018Z,0.40
2023-02-19T12:41:21.276Z,0.17
2023-02-19T12:43:55.644Z,0.40
2023-02-19T12:46:30.899Z,0.32
2023-02-19T12:49:05.319Z,0.50
2023-02-19T12:51:42.204Z,0.22
2023-02-19T12:54:16.184Z,0.52
2023-02-19T12:56:49.435Z,0.43
2023-02-19T12:59:23.885Z,0.55
2023-02-19T13:01:58.066Z,0.45
2023-02-19T13:04:35.713Z,0.35
2023-02-19T13:07:10.929Z,0.40
2023-02-19T13:09:45.035Z,0.28
2023-02-19T13:12:18.856Z,0.32
2023-02-19T13:14:50.248Z,0.38
2023-02-19T13:17:25.748Z,0.25
2023-02-19T13:19:59.665Z,1.38
2023-02-19T13:22:54.997Z,0.63
2023-02-19T13:25:24.625Z,0.75
2023-02-19T13:28:14.486Z,0.17
2023-02-19T13:31:05.636Z,0.25
2023-02-19T13:33:47.064Z,0.50
2023-02-19T13:36:21.433Z,0.43
2023-02-19T13:38:51.534Z,0.73
2023-02-19T13:41:22.889Z,0.73
2023-02-19T13:44:03.558Z,0.50
2023-02-19T13:46:41.165Z,0.50
2023-02-19T13:49:45.903Z,0.20
2023-02-19T13:52:41.735Z,0.52
2023-02-19T13:55:54.087Z,0.30
2023-02-19T13:58:58.154Z,0.55
2023-02-19T14:02:12.497Z,0.50
2023-02-19T14:04:51.509Z,0.25
2023-02-19T14:07:38.400Z,0.35
2023-02-19T14:10:13.540Z,0.80
2023-02-19T14:12:43.043Z,0.73
2023-02-19T14:15:44.205Z,0.22
2023-02-19T14:18:44.029Z,0.50
2023-02-19T14:21:26.107Z,0.40
2023-02-19T14:23:57.102Z,0.60
2023-02-19T14:26:27.658Z,0.17
2023-02-19T14:28:57.977Z,0.57
2023-02-19T14:31:30.197Z,0.57
2023-02-19T14:34:00.958Z,0.43
2023-02-19T14:36:36.648Z,0.80
2023-02-19T14:39:07.885Z,0.63
2023-02-19T14:41:40.473Z,0.30
2023-02-19T14:44:17.955Z,0.50
2023-02-19T14:46:52.742Z,0.80
2023-02-19T14:51:54.033Z,0.50
2023-02-19T14:54:34.178Z,0.32
2023-02-19T14:57:05.017Z,0.70
2023-02-19T14:59:34.530Z,0.50
2023-02-19T15:02:04.960Z,0.77
2023-02-19T15:04:37.494Z,0.68
2023-02-19T15:07:10.095Z,0.22
2023-02-19T15:09:42.443Z,1.27
2023-02-19T15:12:17.299Z,0.68
2023-02-19T15:14:49.711Z,0.73
2023-02-19T15:17:27.143Z,0.80
2023-02-19T15:19:56.575Z,1.05
2023-02-19T15:22:28.237Z,1.23
2023-02-19T15:24:56.740Z,1.42
2023-02-19T15:27:26.012Z,1.02
2023-02-19T15:29:55.461Z,1.10
2023-02-19T15:32:26.300Z,0.30
2023-02-19T15:34:56.455Z,0.65
2023-02-19T15:37:26.683Z,0.93
2023-02-19T15:39:55.480Z,0.73
2023-02-19T15:42:27.638Z,1.05
2023-02-19T15:45:00.974Z,2.38
2023-02-19T15:47:35.000Z,7.63
2023-02-19T15:50:09.035Z,6.28
2023-02-19T15:52:46.878Z,3.08
2023-02-19T15:55:28.009Z,1.52
2023-02-19T16:00:36.031Z,0.93
2023-02-19T16:03:05.548Z,0.85
2023-02-19T16:05:39.362Z,0.60
2023-02-19T16:08:10.107Z,0.63
2023-02-19T16:10:38.716Z,0.73
2023-02-19T16:13:08.533Z,0.95
2023-02-19T16:15:40.727Z,0.57
2023-02-19T16:18:15.230Z,0.63
2023-02-19T16:20:49.058Z,0.50
2023-02-19T16:23:22.128Z,0.43
2023-02-19T16:25:50.464Z,0.70
2023-02-19T16:30:58.789Z,0.43
2023-02-19T16:33:36.901Z,0.70
2023-02-19T16:36:27.343Z,0.60
2023-02-19T16:39:20.955Z,0.63
2023-02-19T16:42:14.687Z,0.73
2023-02-19T16:44:47.188Z,0.60
2023-02-19T16:47:27.663Z,1.83
2023-02-19T16:49:56.822Z,1.77
2023-02-19T16:52:24.924Z,1.20
2023-02-19T16:54:52.850Z,1.23
2023-02-19T16:57:21.654Z,1.13
2023-02-19T16:59:49.879Z,0.70
2023-02-19T17:02:23.538Z,0.45
2023-02-19T17:04:55.006Z,0.60
2023-02-19T17:07:23.890Z,0.52
2023-02-19T17:09:51.988Z,0.40
2023-02-19T17:12:20.229Z,0.70
2023-02-19T17:14:48.379Z,0.43
2023-02-19T17:17:16.382Z,0.80
2023-02-19T17:19:45.780Z,0.80
2023-02-19T17:22:16.890Z,0.77
2023-02-19T17:24:46.058Z,0.90
2023-02-19T17:27:14.671Z,1.30
2023-02-19T17:29:42.853Z,0.88
2023-02-19T17:32:11.192Z,0.77
2023-02-19T17:39:36.280Z,1.20
2023-02-19T17:42:05.362Z,2.00
2023-02-19T17:44:33.596Z,1.60
2023-02-19T17:47:02.318Z,1.35
2023-02-19T17:49:30.381Z,0.95
2023-02-19T17:51:59.552Z,1.25
2023-02-19T17:54:28.999Z,1.15
2023-02-19T17:56:57.029Z,2.03
2023-02-19T17:59:25.151Z,1.88
2023-02-19T18:01:53.174Z,1.27
2023-02-19T18:04:21.344Z,2.20
2023-02-19T18:06:49.459Z,1.83
2023-02-19T18:09:19.421Z,2.10
2023-02-19T18:11:49.391Z,1.52
2023-02-19T18:14:17.538Z,1.95
2023-02-19T18:16:50.346Z,2.78
2023-02-19T18:19:19.514Z,3.60
2023-02-19T18:21:47.461Z,3.60
2023-02-19T18:24:16.050Z,4.20
2023-02-19T18:26:44.072Z,3.58
2023-02-19T18:29:13.990Z,3.20
2023-02-19T18:31:42.145Z,3.70
2023-02-19T18:34:17.818Z,2.47
2023-02-19T18:36:46.840Z,2.30
2023-02-19T18:39:15.256Z,2.25
2023-02-19T18:44:18.687Z,2.53
2023-02-19T18:46:46.704Z,1.65
2023-02-19T18:49:15.110Z,2.72
2023-02-19T18:54:12.405Z,1.67
2023-02-19T18:56:44.608Z,2.40
2023-02-19T18:59:13.171Z,3.15
2023-02-19T19:04:10.502Z,4.78
2023-02-19T19:06:38.484Z,4.72
2023-02-19T19:09:07.070Z,3.92
2023-02-19T19:14:03.389Z,4.30
2023-02-19T19:16:31.758Z,3.22
2023-02-19T19:19:01.370Z,3.30
2023-02-19T19:21:29.603Z,3.80
2023-02-19T19:23:57.686Z,2.67
2023-02-19T19:26:25.724Z,2.35
2023-02-19T19:28:53.950Z,2.33
2023-02-19T19:31:22.923Z,1.85
2023-02-19T19:33:51.118Z,1.90
2023-02-19T19:36:22.888Z,2.25
2023-02-19T19:38:51.013Z,2.35
2023-02-19T19:41:20.884Z,1.88
2023-02-19T19:43:48.974Z,2.50
2023-02-19T19:46:19.936Z,2.67
2023-02-19T19:48:48.311Z,2.85
2023-02-19T19:51:16.578Z,2.13
2023-02-19T19:53:48.041Z,2.28
2023-02-19T19:56:16.393Z,1.88
2023-02-19T19:58:44.406Z,1.90
2023-02-19T20:01:12.663Z,1.60
2023-02-19T20:03:40.967Z,2.63
2023-02-19T20:06:09.289Z,2.63
2023-02-19T20:08:37.430Z,2.33
2023-02-19T20:11:06.907Z,1.40
2023-02-19T20:13:35.119Z,2.03
2023-02-19T20:16:03.256Z,2.00
2023-02-19T20:18:31.324Z,1.70
2023-02-19T20:20:59.747Z,2.00
2023-02-19T20:25:57.635Z,2.13
2023-02-19T20:28:27.133Z,2.28
2023-02-19T20:30:55.261Z,2.08
2023-02-19T20:33:23.309Z,1.48
2023-02-19T20:35:51.476Z,1.65
2023-02-19T20:38:19.543Z,1.50
2023-02-19T20:40:47.685Z,1.70
2023-02-19T20:43:15.858Z,1.30
2023-02-19T20:45:47.782Z,0.98
2023-02-19T20:48:16.939Z,1.25
2023-02-19T20:50:45.267Z,1.80
2023-02-19T20:53:13.466Z,1.25
2023-02-19T20:55:41.406Z,1.25
2023-02-19T20:58:09.553Z,1.65
2023-02-19T21:00:37.482Z,0.95
2023-02-19T21:03:08.955Z,1.17
2023-02-19T21:05:37.587Z,1.10
2023-02-19T21:10:34.524Z,1.08
2023-02-19T21:13:02.873Z,1.30
2023-02-19T21:15:30.816Z,1.60
2023-02-19T21:17:58.930Z,0.93
2023-02-19T21:20:28.756Z,1.48
2023-02-19T21:22:56.628Z,1.25
2023-02-19T21:25:24.729Z,1.63
2023-02-19T21:27:52.733Z,1.58
2023-02-19T21:30:21.102Z,1.70
2023-02-19T21:32:49.141Z,0.82
2023-02-19T21:35:17.352Z,1.55
2023-02-19T21:37:46.676Z,1.30
2023-02-19T21:40:15.764Z,1.70
2023-02-19T21:42:44.668Z,1.27
2023-02-19T21:45:12.599Z,1.42
2023-02-19T21:47:40.644Z,1.08
2023-02-19T21:50:09.326Z,1.88
2023-02-19T21:52:37.368Z,1.67
2023-02-19T21:55:07.678Z,1.35
2023-02-19T21:57:35.816Z,0.88
2023-02-19T22:00:05.430Z,1.38
2023-02-19T22:02:33.762Z,1.65
2023-02-19T22:05:02.522Z,1.17
2023-02-19T22:07:30.625Z,1.45
2023-02-19T22:09:58.640Z,1.25
2023-02-19T22:12:28.076Z,1.20
2023-02-19T22:14:56.382Z,1.55
2023-02-19T22:17:24.284Z,0.80
2023-02-19T22:19:52.438Z,0.38
2023-02-19T22:22:20.460Z,1.10
2023-02-19T22:24:48.480Z,1.42
2023-02-19T22:27:16.410Z,0.85
2023-02-19T22:29:45.861Z,1.50
2023-02-19T22:32:13.947Z,1.35
2023-02-19T22:34:42.308Z,1.30
2023-02-19T22:37:10.425Z,1.70
2023-02-19T22:39:38.419Z,0.70
2023-02-19T22:42:07.087Z,0.73
2023-02-19T22:44:35.470Z,1.05
2023-02-19T22:47:04.869Z,0.73
2023-02-19T22:49:32.830Z,0.93
2023-02-19T22:52:05.132Z,0.45
2023-02-19T22:54:33.227Z,1.35
2023-02-19T22:57:01.399Z,0.85
2023-02-19T22:59:29.327Z,0.65
2023-02-19T23:01:57.495Z,0.95
2023-02-19T23:04:27.336Z,1.00
2023-02-19T23:06:55.505Z,0.73
2023-02-19T23:09:26.164Z,1.00
2023-02-19T23:11:55.086Z,0.95
2023-02-19T23:14:24.326Z,1.35
2023-02-19T23:16:52.346Z,0.68
2023-02-19T23:19:20.398Z,1.08
2023-02-19T23:21:50.015Z,1.17
2023-02-19T23:24:18.302Z,1.00
2023-02-19T23:26:47.435Z,1.02
2023-02-19T23:29:20.137Z,1.23
2023-02-19T23:31:48.530Z,0.70
2023-02-19T23:34:17.401Z,1.05
2023-02-19T23:36:47.265Z,0.52
2023-02-19T23:39:19.026Z,1.00
2023-02-19T23:41:48.577Z,1.98
2023-02-19T23:44:16.964Z,1.98
2023-02-19T23:46:45.486Z,0.63
2023-02-19T23:49:13.672Z,1.15
2023-02-19T23:51:41.863Z,2.03
2023-02-19T23:54:10.224Z,0.95
2023-02-19T23:56:39.975Z,1.90
2023-02-19T23:59:08.088Z,1.10
